createdAt,value
2022-11-14T00:00:11.892Z,16.33
2022-11-14T00:05:32.613Z,19.85
2022-11-14T00:10:53.260Z,19.90
2022-11-14T00:16:16.974Z,17.90
2022-11-14T00:21:37.004Z,19.10
2022-11-14T00:26:58.145Z,18.15
2022-11-14T00:32:18.559Z,17.65
2022-11-14T00:37:38.779Z,18.30
2022-11-14T00:42:59.313Z,17.83
2022-11-14T00:48:19.406Z,16.10
2022-11-14T00:53:39.833Z,20.08
2022-11-14T00:59:00.419Z,20.40
2022-11-14T01:04:20.750Z,19.15
2022-11-14T01:09:41.129Z,17.60
2022-11-14T01:15:01.458Z,21.52
2022-11-14T01:20:21.842Z,22.45
2022-11-14T01:25:43.301Z,20.67
2022-11-14T01:31:14.205Z,18.98
2022-11-14T01:36:34.423Z,16.13
2022-11-14T01:41:55.991Z,19.60
2022-11-14T01:47:30.888Z,25.13
2022-11-14T01:52:51.189Z,16.02
2022-11-14T01:58:13.133Z,18.08
2022-11-14T02:03:37.967Z,19.88
2022-11-14T02:09:01.368Z,20.65
2022-11-14T02:14:21.846Z,23.15
2022-11-14T02:20:02.254Z,17.20
2022-11-14T02:25:26.318Z,16.60
2022-11-14T02:30:46.626Z,20.38
2022-11-14T02:36:07.505Z,19.63
2022-11-14T02:41:27.760Z,18.42
2022-11-14T02:46:48.142Z,22.08
2022-11-14T02:52:08.549Z,21.23
2022-11-14T02:57:28.619Z,19.58
2022-11-14T03:02:49.100Z,20.70
2022-11-14T03:08:09.195Z,24.38
2022-11-14T03:13:32.742Z,20.08
2022-11-14T03:18:53.453Z,26.52
2022-11-14T03:24:13.715Z,18.88
2022-11-14T03:29:34.336Z,21.38
2022-11-14T03:34:54.637Z,20.98
2022-11-14T03:40:14.717Z,18.63
2022-11-14T03:45:37.543Z,19.40
2022-11-14T03:50:58.525Z,22.80
2022-11-14T03:56:18.945Z,17.10
2022-11-14T04:01:39.503Z,19.75
2022-11-14T04:06:59.969Z,18.15
2022-11-14T04:12:20.220Z,21.90
2022-11-14T04:17:40.914Z,20.98
2022-11-14T04:23:01.076Z,15.45
2022-11-14T04:28:21.390Z,21.23
2022-11-14T04:33:41.714Z,20.60
2022-11-14T04:39:02.242Z,17.95
2022-11-14T04:44:22.653Z,22.45
2022-11-14T04:49:42.958Z,19.60
2022-11-14T04:55:03.514Z,19.13
2022-11-14T05:00:25.022Z,21.90
2022-11-14T05:05:45.691Z,20.35
2022-11-14T05:11:06.652Z,18.15
2022-11-14T05:16:26.981Z,18.85
2022-11-14T05:21:47.380Z,19.98
2022-11-14T05:27:07.673Z,17.27
2022-11-14T05:32:28.161Z,20.20
2022-11-14T05:37:48.491Z,17.88
2022-11-14T05:43:09.286Z,17.23
2022-11-14T05:48:31.024Z,21.58
2022-11-14T05:53:52.507Z,22.10
2022-11-14T05:59:13.184Z,17.65
2022-11-14T06:04:33.840Z,23.08
2022-11-14T06:09:54.338Z,22.10
2022-11-14T06:15:15.396Z,19.60
2022-11-14T06:20:37.165Z,22.70
2022-11-14T06:26:02.405Z,25.98
2022-11-14T06:31:24.442Z,20.05
2022-11-14T06:36:44.702Z,22.50
2022-11-14T06:42:05.245Z,21.20
2022-11-14T06:47:25.685Z,25.48
2022-11-14T06:52:45.858Z,25.60
2022-11-14T06:58:06.138Z,27.27
2022-11-14T07:03:26.654Z,19.00
2022-11-14T07:08:47.680Z,25.23
2022-11-14T07:14:09.784Z,25.75
2022-11-14T07:19:30.431Z,24.45
2022-11-14T07:24:50.916Z,22.13
2022-11-14T07:30:12.264Z,21.45
2022-11-14T07:35:32.299Z,22.23
2022-11-14T07:40:59.967Z,18.40
2022-11-14T07:46:20.949Z,19.88
2022-11-14T07:51:41.427Z,22.45
2022-11-14T07:57:01.781Z,19.65
2022-11-14T08:02:21.958Z,19.05
2022-11-14T08:07:42.990Z,18.42
2022-11-14T08:18:46.291Z,17.48
2022-11-14T08:24:06.885Z,21.98
2022-11-14T08:29:27.220Z,18.13
2022-11-14T08:34:48.196Z,20.60
2022-11-14T08:40:11.129Z,19.83
2022-11-14T08:45:31.535Z,21.85
2022-11-14T08:50:52.086Z,18.92
2022-11-14T08:56:12.437Z,17.70
2022-11-14T09:01:33.175Z,18.05
2022-11-14T09:06:53.718Z,19.92
2022-11-14T09:12:14.292Z,22.55
2022-11-14T09:17:35.410Z,21.00
2022-11-14T09:22:58.948Z,18.05
2022-11-14T09:28:19.447Z,18.10
2022-11-14T09:33:40.529Z,25.63
2022-11-14T09:39:01.140Z,23.38
2022-11-14T09:44:21.689Z,16.60
2022-11-14T09:49:45.637Z,16.38
2022-11-14T09:55:17.644Z,19.00
2022-11-14T10:01:07.895Z,19.40
2022-11-14T10:06:35.305Z,16.73
2022-11-14T10:12:41.106Z,19.60
2022-11-14T10:18:23.760Z,21.15
2022-11-14T10:24:18.456Z,23.77
2022-11-14T10:29:44.974Z,16.15
2022-11-14T10:35:24.590Z,16.83
2022-11-14T10:40:48.460Z,20.02
2022-11-14T10:46:19.855Z,17.80
2022-11-14T10:51:47.052Z,22.33
2022-11-14T10:57:22.493Z,19.92
2022-11-14T11:02:54.862Z,21.55
2022-11-14T11:08:43.801Z,19.50
2022-11-14T11:14:05.189Z,21.52
2022-11-14T11:19:27.709Z,19.70
2022-11-14T11:24:48.198Z,20.35
2022-11-14T11:30:26.484Z,20.75
2022-11-14T11:35:50.529Z,18.80
2022-11-14T11:41:42.413Z,20.15
2022-11-14T11:47:05.027Z,19.63
2022-11-14T11:52:44.467Z,22.98
2022-11-14T11:58:12.105Z,19.92
2022-11-14T12:03:32.508Z,17.55
2022-11-14T12:09:06.824Z,19.42
2022-11-14T12:14:29.879Z,17.20
2022-11-14T12:20:02.334Z,20.17
2022-11-14T12:25:35.289Z,16.20
2022-11-14T12:31:03.725Z,19.50
2022-11-14T12:36:30.482Z,20.37
2022-11-14T12:41:50.851Z,26.05
2022-11-14T12:47:20.331Z,22.20
2022-11-14T12:52:40.768Z,19.27
2022-11-14T12:58:32.861Z,19.52
2022-11-14T13:04:16.088Z,21.88
2022-11-14T13:10:14.076Z,18.38
2022-11-14T13:16:06.041Z,21.83
2022-11-14T13:21:46.246Z,21.17
2022-11-14T13:28:06.015Z,20.33
2022-11-14T13:33:43.056Z,23.35
2022-11-14T13:39:07.057Z,17.83
2022-11-14T13:44:33.400Z,18.17
2022-11-14T13:50:14.450Z,23.50
2022-11-14T13:55:55.103Z,22.80
2022-11-14T14:01:28.317Z,21.13
2022-11-14T14:06:54.712Z,22.25
2022-11-14T14:12:24.159Z,21.73
2022-11-14T14:17:56.785Z,21.02
2022-11-14T14:23:29.381Z,18.77
2022-11-14T14:29:06.313Z,19.13
2022-11-14T14:34:32.122Z,19.73
2022-11-14T14:40:35.721Z,15.50
2022-11-14T14:45:56.462Z,24.60
2022-11-14T14:51:30.610Z,22.38
2022-11-14T14:57:03.585Z,25.60
2022-11-14T15:02:26.064Z,22.65
2022-11-14T15:07:49.584Z,23.30
2022-11-14T15:13:15.928Z,19.35
2022-11-14T15:18:37.780Z,31.58
2022-11-14T15:24:19.898Z,25.10
2022-11-14T15:29:53.390Z,20.70
2022-11-14T15:35:24.940Z,25.60
2022-11-14T15:41:10.747Z,21.35
2022-11-14T15:46:40.822Z,27.58
2022-11-14T15:52:03.817Z,24.52
2022-11-14T15:57:24.656Z,25.08
2022-11-14T16:02:49.635Z,24.45
2022-11-14T16:08:14.152Z,30.67
2022-11-14T16:13:34.897Z,23.48
2022-11-14T16:18:55.455Z,29.33
2022-11-14T16:24:22.509Z,31.42
2022-11-14T16:29:42.876Z,24.58
2022-11-14T16:35:03.566Z,24.92
2022-11-14T16:40:27.873Z,29.20
2022-11-14T16:45:48.524Z,25.77
2022-11-14T16:51:33.007Z,24.45
2022-11-14T16:56:50.146Z,28.23
2022-11-14T17:02:21.073Z,25.65
2022-11-14T17:07:41.430Z,43.30
2022-11-14T17:13:01.745Z,30.27
2022-11-14T17:18:22.126Z,32.85
2022-11-14T17:23:42.329Z,24.05
2022-11-14T17:29:04.121Z,26.65
2022-11-14T17:34:24.699Z,26.65
2022-11-14T17:39:45.168Z,35.78
2022-11-14T17:45:05.983Z,25.60
2022-11-14T17:50:26.504Z,31.67
2022-11-14T17:55:47.143Z,31.52
2022-11-14T18:01:16.895Z,39.10
2022-11-14T18:06:37.206Z,25.42
2022-11-14T18:11:57.801Z,28.45
2022-11-14T18:17:18.679Z,27.05
2022-11-14T18:22:38.984Z,32.35
2022-11-14T18:27:59.240Z,36.85
2022-11-14T18:33:19.579Z,37.78
2022-11-14T18:38:41.264Z,31.30
2022-11-14T18:44:03.775Z,28.38
2022-11-14T18:49:24.307Z,33.00
2022-11-14T18:54:44.923Z,27.85
2022-11-14T19:00:05.981Z,38.60
2022-11-14T19:05:25.958Z,36.28
2022-11-14T19:10:46.784Z,33.92
2022-11-14T19:16:07.718Z,41.17
2022-11-14T19:21:28.912Z,38.88
2022-11-14T19:26:50.201Z,34.55
2022-11-14T19:32:10.223Z,32.25
2022-11-14T19:37:30.649Z,30.13
2022-11-14T19:42:53.824Z,35.20
2022-11-14T19:48:14.569Z,32.03
2022-11-14T19:53:36.915Z,29.58
2022-11-14T19:58:57.329Z,27.30
2022-11-14T20:04:17.584Z,30.33
2022-11-14T20:09:38.159Z,33.53
2022-11-14T20:14:58.803Z,34.72
2022-11-14T20:20:19.570Z,29.95
2022-11-14T20:25:40.582Z,32.63
2022-11-14T20:31:02.723Z,29.15
2022-11-14T20:36:26.118Z,29.52
2022-11-14T20:41:46.772Z,26.17
2022-11-14T20:47:10.977Z,28.08
2022-11-14T20:52:31.835Z,31.48
2022-11-14T20:57:52.417Z,30.77
2022-11-14T21:03:12.708Z,27.30
2022-11-14T21:08:34.911Z,29.58
2022-11-14T21:14:01.740Z,30.05
2022-11-14T21:19:22.841Z,30.15
2022-11-14T21:24:43.438Z,29.70
2022-11-14T21:30:04.323Z,29.95
2022-11-14T21:35:24.806Z,27.13
2022-11-14T21:40:54.431Z,30.55
2022-11-14T21:46:18.526Z,28.77
2022-11-14T21:51:39.085Z,30.80
2022-11-14T21:56:59.515Z,29.80
2022-11-14T22:02:38.180Z,26.10
2022-11-14T22:07:58.542Z,28.83
2022-11-14T22:13:19.043Z,27.25
2022-11-14T22:18:38.966Z,30.85
2022-11-14T22:23:59.618Z,27.38
2022-11-14T22:29:20.043Z,27.02
2022-11-14T22:34:40.294Z,22.73
2022-11-14T22:40:00.749Z,24.02
2022-11-14T22:45:21.427Z,20.52
2022-11-14T22:50:41.477Z,24.88
2022-11-14T22:56:02.916Z,30.35
2022-11-14T23:01:31.837Z,27.42
2022-11-14T23:06:52.020Z,25.13
2022-11-14T23:12:12.129Z,26.23
2022-11-14T23:17:32.650Z,26.73
2022-11-14T23:22:53.047Z,24.40
2022-11-14T23:28:13.360Z,22.27
2022-11-14T23:33:33.894Z,25.65
2022-11-14T23:38:55.349Z,23.92
2022-11-14T23:44:15.791Z,22.92
2022-11-14T23:49:35.873Z,30.80
2022-11-14T23:54:56.068Z,26.77
